In Rescue
 
Open Full Screen Window  High Contrast Mode
January 28, 2020 11:29 PM CST
Weather Information
Wind Direction
  ---
Wind Speed
  00 kt (0 mph)
Wind Gust
  00 kt (0 mph)
Altimeter
30.20 in
Visibility
10 SM
Temperature
-12° C
10° F
Dewpoint
-13° C
F
Humidity
92%
1hr Rain Fall
00.00 in.
24hr Rain Fall
00.00 in.
Sky Condition
Overcast @ 2,400 ft
MVFR

METAR KFOZ 290529Z AUTO 00000KT 10SM OVC024 M12/M13 A3020 RMK AO2

FAA Disclaimer: The data displayed is for advisory purposes only and is not to be used for flight planning or operations.